Time;durP1;ratioP1;P1;durP2;ratioP2;P2;SDS_P1;SDS_P2;PMS_P1;PMS_P2;Temp;Humidity;BMP_temperature;BMP_pressure;BME280_temperature;BME280_humidity;BME280_pressure;Samples;Min_cycle;Max_cycle;Signal;HPM_P1;HPM_P2
2021/12/30 00:00:29;;;;;;;;;;;13.10;99.90;;;;;;5146831;27;20010;-77
2021/12/30 00:02:54;;;;;;;;;;;13.00;99.90;;;;;;5142814;27;19957;-76
2021/12/30 00:05:20;;;;;;;;;;;13.00;99.90;;;;;;5133704;27;19994;-76
2021/12/30 00:07:46;;;;;;;;;;;13.00;99.90;;;;;;5137178;27;19994;-76
2021/12/30 00:10:12;;;;;;;;;;;13.00;99.90;;;;;;5136869;27;20007;-76
2021/12/30 00:12:38;;;;;;;;;;;13.00;99.90;;;;;;5138962;27;19923;-76
2021/12/30 00:15:05;;;;;;;;;;;12.90;99.90;;;;;;5119383;27;19931;-78
2021/12/30 00:17:30;;;;;;;;;;;13.00;99.90;;;;;;5136480;27;20004;-78
2021/12/30 00:19:56;;;;;;;;;;;12.90;99.90;;;;;;5136584;27;19954;-78
2021/12/30 00:22:23;;;;;;;;;;;12.90;99.90;;;;;;5136091;27;19914;-78
2021/12/30 00:24:48;;;;;;;;;;;12.90;99.90;;;;;;5136935;27;20948;-78
2021/12/30 00:27:14;;;;;;;;;;;12.90;99.90;;;;;;5138224;27;19912;-78
2021/12/30 00:29:39;;;;;;;;;;;12.90;99.90;;;;;;5136838;27;19965;-78
2021/12/30 00:32:05;;;;;;;;;;;12.90;99.90;;;;;;5140323;27;19920;-78
2021/12/30 00:34:30;;;;;;;;;;;12.90;99.90;;;;;;5143249;27;19912;-78
2021/12/30 00:36:56;;;;;;;;;;;13.00;99.90;;;;;;5131997;27;19911;-77
2021/12/30 00:39:22;;;;;;;;;;;13.00;99.90;;;;;;5154405;27;19958;-77
2021/12/30 00:41:47;;;;;;;;;;;13.00;99.90;;;;;;5142821;27;20379;-78
2021/12/30 00:44:13;;;;;;;;;;;13.00;99.90;;;;;;5133991;27;19956;-77
2021/12/30 00:46:39;;;;;;;;;;;13.00;99.90;;;;;;5134524;27;19908;-77
2021/12/30 00:49:04;;;;;;;;;;;13.00;99.90;;;;;;5134940;27;19998;-77
2021/12/30 00:51:30;;;;;;;;;;;12.90;99.90;;;;;;5133796;27;19951;-77
2021/12/30 00:53:56;;;;;;;;;;;12.90;99.90;;;;;;5130814;27;19975;-76
2021/12/30 00:56:21;;;;;;;;;;;13.00;99.90;;;;;;5152300;27;19926;-77
2021/12/30 00:58:47;;;;;;;;;;;12.90;99.90;;;;;;5155126;27;19932;-77
2021/12/30 01:01:13;;;;;;;;;;;12.90;99.90;;;;;;5155776;27;19908;-76
2021/12/30 01:03:39;;;;;;;;;;;12.90;99.90;;;;;;5154506;27;19930;-77
2021/12/30 01:06:04;;;;;;;;;;;13.00;99.90;;;;;;5155877;27;20391;-76
2021/12/30 01:08:31;;;;;;;;;;;12.90;99.90;;;;;;5155272;27;19907;-75
2021/12/30 01:10:56;;;;;;;;;;;12.90;99.90;;;;;;5155841;27;19907;-74
2021/12/30 01:13:26;;;;;;;;;;;12.90;99.90;;;;;;5154908;27;19922;-75
2021/12/30 01:16:03;;;;;;;;;;;12.90;99.90;;;;;;5155987;27;19907;-75
2021/12/30 01:18:56;;;;;;;;;;;12.90;99.90;;;;;;5155104;27;19961;-74
2021/12/30 01:21:24;;;;;;;;;;;12.90;99.90;;;;;;5155425;27;19914;-75
2021/12/30 01:23:49;;;;;;;;;;;12.90;99.90;;;;;;5137328;27;19932;-75
2021/12/30 01:26:15;;;;;;;;;;;13.00;99.90;;;;;;5155492;27;19911;-75
2021/12/30 01:28:41;;;;;;;;;;;12.90;99.90;;;;;;5155104;27;20328;-75
2021/12/30 01:31:08;;;;;;;;;;;12.90;99.90;;;;;;5155660;27;19922;-75
2021/12/30 01:33:34;;;;;;;;;;;12.90;99.90;;;;;;5154550;27;19965;-76
2021/12/30 01:36:00;;;;;;;;;;;12.90;99.90;;;;;;5155448;27;19911;-76
2021/12/30 01:38:26;;;;;;;;;;;13.00;99.90;;;;;;5163007;27;19934;-75
2021/12/30 01:40:53;;;;;;;;;;;13.00;99.90;;;;;;5159497;27;19914;-76
2021/12/30 01:43:20;;;;;;;;;;;13.00;99.90;;;;;;5154531;27;19914;-76
2021/12/30 01:45:46;;;;;;;;;;;13.10;99.90;;;;;;5154766;27;20388;-75
2021/12/30 01:48:13;;;;;;;;;;;13.10;99.90;;;;;;5149985;27;19911;-75
2021/12/30 01:50:38;;;;;;;;;;;13.10;99.90;;;;;;5133759;27;19914;-75
2021/12/30 01:53:04;;;;;;;;;;;13.10;99.90;;;;;;5134375;27;19915;-76
2021/12/30 01:55:32;;;;;;;;;;;13.00;99.90;;;;;;5133610;27;19991;-76
2021/12/30 01:57:59;;;;;;;;;;;13.00;99.90;;;;;;5134370;27;19951;-76
2021/12/30 02:00:25;;;;;;;;;;;12.90;99.90;;;;;;5133584;27;19907;-75
2021/12/30 02:02:51;;;;;;;;;;;13.00;99.90;;;;;;5134090;27;19914;-75
2021/12/30 02:05:16;;;;;;;;;;;13.00;99.90;;;;;;5134137;27;19907;-75
2021/12/30 02:07:42;;;;;;;;;;;12.90;99.90;;;;;;5133412;27;19908;-75
2021/12/30 02:10:08;;;;;;;;;;;12.80;99.90;;;;;;5134002;27;19912;-74
2021/12/30 02:12:35;;;;;;;;;;;12.80;99.90;;;;;;5133264;27;19959;-74
2021/12/30 02:15:01;;;;;;;;;;;12.80;99.90;;;;;;5134012;27;19911;-75
2021/12/30 02:17:27;;;;;;;;;;;12.80;99.90;;;;;;5132951;27;19953;-75
2021/12/30 02:20:00;;;;;;;;;;;12.80;99.90;;;;;;5134037;27;19907;-75
2021/12/30 02:22:26;;;;;;;;;;;12.70;99.90;;;;;;5133519;27;19907;-75
2021/12/30 02:24:52;;;;;;;;;;;12.70;99.90;;;;;;5134793;27;20006;-74
2021/12/30 02:27:18;;;;;;;;;;;12.70;99.90;;;;;;5144030;27;20437;-76
2021/12/30 02:29:43;;;;;;;;;;;12.60;99.90;;;;;;5133039;27;20287;-75
2021/12/30 02:32:09;;;;;;;;;;;12.70;99.90;;;;;;5133603;27;19995;-75
2021/12/30 02:34:36;;;;;;;;;;;12.70;99.90;;;;;;5133076;27;20231;-76
2021/12/30 02:37:02;;;;;;;;;;;12.70;99.90;;;;;;5133958;27;19913;-76
2021/12/30 02:39:29;;;;;;;;;;;12.70;99.90;;;;;;5132756;27;19911;-76
2021/12/30 02:41:54;;;;;;;;;;;12.80;99.90;;;;;;5133497;27;19960;-76
2021/12/30 02:44:22;;;;;;;;;;;12.90;99.90;;;;;;5133622;27;19912;-76
2021/12/30 02:46:51;;;;;;;;;;;12.90;99.90;;;;;;5132974;27;19911;-76
2021/12/30 02:49:17;;;;;;;;;;;12.90;99.90;;;;;;5132940;27;19960;-74
2021/12/30 02:51:42;;;;;;;;;;;12.90;99.90;;;;;;5132562;27;19907;-77
2021/12/30 02:54:08;;;;;;;;;;;12.80;99.90;;;;;;5133213;27;19964;-74
2021/12/30 02:56:34;;;;;;;;;;;12.90;99.90;;;;;;5132837;28;19922;-75
2021/12/30 02:58:59;;;;;;;;;;;12.80;99.90;;;;;;5133706;28;19915;-75
2021/12/30 03:01:29;;;;;;;;;;;12.90;99.90;;;;;;5132908;27;19970;-75
2021/12/30 03:03:56;;;;;;;;;;;12.80;99.90;;;;;;5133666;28;19911;-75
2021/12/30 03:06:21;;;;;;;;;;;12.80;99.90;;;;;;5133228;28;19952;-75
2021/12/30 03:08:47;;;;;;;;;;;12.80;99.90;;;;;;5132725;28;20270;-75
2021/12/30 03:11:14;;;;;;;;;;;12.90;99.90;;;;;;5132963;28;19915;-75
2021/12/30 03:13:42;;;;;;;;;;;12.90;99.90;;;;;;5149076;27;20363;-75
2021/12/30 03:16:11;;;;;;;;;;;12.90;99.90;;;;;;5153940;27;19942;-74
2021/12/30 03:18:38;;;;;;;;;;;12.90;99.90;;;;;;5152892;27;19907;-75
2021/12/30 03:21:05;;;;;;;;;;;12.90;99.90;;;;;;5154022;27;20342;-75
2021/12/30 03:23:31;;;;;;;;;;;12.90;99.90;;;;;;5153150;27;19994;-76
2021/12/30 03:25:56;;;;;;;;;;;12.90;99.90;;;;;;5154093;27;19949;-75
2021/12/30 03:28:22;;;;;;;;;;;12.90;99.90;;;;;;5154006;27;19911;-75
2021/12/30 03:30:48;;;;;;;;;;;12.90;99.90;;;;;;5152851;27;19953;-75
2021/12/30 03:33:14;;;;;;;;;;;12.80;99.90;;;;;;5153723;27;20271;-76
2021/12/30 03:35:39;;;;;;;;;;;12.90;99.90;;;;;;5152925;27;19911;-76
2021/12/30 03:38:06;;;;;;;;;;;12.80;99.90;;;;;;5153953;27;19909;-75
2021/12/30 03:40:32;;;;;;;;;;;12.90;99.90;;;;;;5152764;27;19907;-76
2021/12/30 03:42:57;;;;;;;;;;;12.90;99.90;;;;;;5153971;27;20307;-75
2021/12/30 03:45:23;;;;;;;;;;;12.90;99.90;;;;;;5153766;27;20452;-75
2021/12/30 03:47:50;;;;;;;;;;;12.90;99.90;;;;;;5152956;27;19907;-75
2021/12/30 03:50:23;;;;;;;;;;;13.00;99.90;;;;;;5153760;27;20279;-76
2021/12/30 03:52:53;;;;;;;;;;;13.00;99.90;;;;;;5152775;27;19907;-76
2021/12/30 03:55:19;;;;;;;;;;;13.00;99.90;;;;;;5153204;27;19923;-76
2021/12/30 03:57:45;;;;;;;;;;;12.90;99.90;;;;;;5152848;27;19914;-76
2021/12/30 04:00:11;;;;;;;;;;;12.90;99.90;;;;;;5153488;27;19907;-76
2021/12/30 04:02:37;;;;;;;;;;;13.00;99.90;;;;;;5154696;27;19950;-76
2021/12/30 04:05:03;;;;;;;;;;;13.00;99.90;;;;;;5157397;27;20312;-76
2021/12/30 04:07:28;;;;;;;;;;;13.00;99.90;;;;;;5156503;27;19994;-77
2021/12/30 04:09:54;;;;;;;;;;;13.10;99.90;;;;;;5156996;27;20346;-76
2021/12/30 04:12:20;;;;;;;;;;;13.10;99.90;;;;;;5148432;27;19931;-76
2021/12/30 04:14:45;;;;;;;;;;;13.10;99.90;;;;;;5135764;27;20387;-76
2021/12/30 04:17:11;;;;;;;;;;;13.20;99.90;;;;;;5136620;27;20380;-76
2021/12/30 04:19:36;;;;;;;;;;;13.10;99.90;;;;;;5135686;27;20315;-76
2021/12/30 04:22:02;;;;;;;;;;;13.20;99.90;;;;;;5136209;27;19907;-76
2021/12/30 04:24:27;;;;;;;;;;;13.20;99.90;;;;;;5136198;27;20275;-76
2021/12/30 04:26:53;;;;;;;;;;;13.10;99.90;;;;;;5135614;27;19914;-76
2021/12/30 04:29:19;;;;;;;;;;;13.10;99.90;;;;;;5136629;27;19915;-76
2021/12/30 04:31:45;;;;;;;;;;;13.10;99.90;;;;;;5116818;27;20275;-77
2021/12/30 04:34:11;;;;;;;;;;;13.20;99.90;;;;;;5136095;27;19915;-76
2021/12/30 04:36:37;;;;;;;;;;;13.20;99.90;;;;;;5135135;27;20375;-76
2021/12/30 04:39:03;;;;;;;;;;;13.20;99.90;;;;;;5135772;27;20002;-76
2021/12/30 04:41:28;;;;;;;;;;;13.30;99.90;;;;;;5135643;27;19911;-76
2021/12/30 04:43:54;;;;;;;;;;;13.30;99.90;;;;;;5135028;27;19907;-76
2021/12/30 04:46:19;;;;;;;;;;;13.30;99.90;;;;;;5135848;27;19915;-76
2021/12/30 04:48:45;;;;;;;;;;;13.30;99.90;;;;;;5134841;27;19911;-76
2021/12/30 04:51:11;;;;;;;;;;;13.30;99.90;;;;;;5135778;27;20323;-76
2021/12/30 04:53:36;;;;;;;;;;;13.20;99.90;;;;;;5134826;27;20014;-76
2021/12/30 04:56:02;;;;;;;;;;;13.30;99.90;;;;;;5136107;27;19920;-76
2021/12/30 04:58:27;;;;;;;;;;;13.30;99.90;;;;;;5135398;27;19918;-76
2021/12/30 05:00:53;;;;;;;;;;;13.20;99.90;;;;;;5116239;27;20236;-76
2021/12/30 05:03:21;;;;;;;;;;;13.20;99.90;;;;;;5135539;27;19915;-76
2021/12/30 05:05:48;;;;;;;;;;;13.20;99.90;;;;;;5134418;27;20288;-77
2021/12/30 05:08:14;;;;;;;;;;;13.20;99.90;;;;;;5135299;27;19915;-77
2021/12/30 05:10:39;;;;;;;;;;;13.20;99.90;;;;;;5134685;27;19914;-77
2021/12/30 05:13:07;;;;;;;;;;;13.20;99.90;;;;;;5135073;27;19986;-77
2021/12/30 05:15:33;;;;;;;;;;;13.20;99.90;;;;;;5134705;27;19943;-76
2021/12/30 05:17:58;;;;;;;;;;;13.10;99.90;;;;;;5135221;27;19912;-76
2021/12/30 05:20:24;;;;;;;;;;;13.20;99.90;;;;;;5135232;27;19908;-76
2021/12/30 05:22:50;;;;;;;;;;;13.20;99.90;;;;;;5134190;27;19907;-76
2021/12/30 05:25:18;;;;;;;;;;;13.20;99.90;;;;;;5150224;27;19911;-76
2021/12/30 05:27:43;;;;;;;;;;;13.30;99.90;;;;;;5154996;27;19919;-76
2021/12/30 05:30:10;;;;;;;;;;;13.40;99.90;;;;;;5155722;27;20043;-76
2021/12/30 05:32:37;;;;;;;;;;;13.40;99.90;;;;;;5136440;27;19915;-77
2021/12/30 05:35:03;;;;;;;;;;;13.40;99.90;;;;;;5155632;27;20314;-77
2021/12/30 05:37:29;;;;;;;;;;;13.40;99.90;;;;;;5155310;27;19907;-77
2021/12/30 05:39:54;;;;;;;;;;;13.40;99.90;;;;;;5154581;27;19993;-77
2021/12/30 05:42:22;;;;;;;;;;;13.40;99.90;;;;;;5155443;27;20272;-77
2021/12/30 05:44:52;;;;;;;;;;;13.40;99.90;;;;;;5154390;27;19950;-77
2021/12/30 05:47:18;;;;;;;;;;;13.30;99.90;;;;;;5136950;27;19911;-77
2021/12/30 05:49:44;;;;;;;;;;;13.30;99.90;;;;;;5136020;27;20382;-77
2021/12/30 05:52:10;;;;;;;;;;;13.30;99.90;;;;;;5155027;27;19907;-77
2021/12/30 05:54:36;;;;;;;;;;;13.30;99.90;;;;;;5154533;27;19963;-77
2021/12/30 05:57:02;;;;;;;;;;;13.30;99.90;;;;;;5154775;27;20006;-77
2021/12/30 05:59:27;;;;;;;;;;;13.20;99.90;;;;;;5154520;27;19912;-77
2021/12/30 06:01:53;;;;;;;;;;;13.30;99.90;;;;;;5153957;27;19911;-77
2021/12/30 06:04:18;;;;;;;;;;;13.20;99.90;;;;;;5154769;27;20336;-77
2021/12/30 06:06:44;;;;;;;;;;;13.20;99.90;;;;;;5154527;27;19907;-77
2021/12/30 06:09:10;;;;;;;;;;;13.20;99.90;;;;;;5154822;27;19907;-77
2021/12/30 06:11:36;;;;;;;;;;;13.20;99.90;;;;;;5136145;27;19914;-77
2021/12/30 06:14:02;;;;;;;;;;;13.30;99.90;;;;;;5154290;27;19915;-77
2021/12/30 06:16:28;;;;;;;;;;;13.30;99.90;;;;;;5154763;27;20007;-76
2021/12/30 06:18:53;;;;;;;;;;;13.30;99.90;;;;;;5154283;27;19949;-76
2021/12/30 06:21:19;;;;;;;;;;;13.30;99.90;;;;;;5154732;27;20351;-77
2021/12/30 06:23:45;;;;;;;;;;;13.30;99.90;;;;;;5135448;27;19942;-77
2021/12/30 06:26:10;;;;;;;;;;;13.30;99.90;;;;;;5153744;27;19911;-76
2021/12/30 06:28:36;;;;;;;;;;;13.30;99.90;;;;;;5154586;27;19960;-77
2021/12/30 06:31:02;;;;;;;;;;;13.20;99.90;;;;;;5154286;27;19950;-77
2021/12/30 06:33:27;;;;;;;;;;;13.30;99.90;;;;;;5154176;27;20283;-76
2021/12/30 06:35:53;;;;;;;;;;;13.30;99.90;;;;;;5148783;27;20056;-77
2021/12/30 06:38:18;;;;;;;;;;;13.20;99.90;;;;;;5133652;27;19911;-77
2021/12/30 06:40:44;;;;;;;;;;;13.20;99.90;;;;;;5132927;27;19930;-76
2021/12/30 06:43:10;;;;;;;;;;;13.20;99.90;;;;;;5133358;27;19908;-76
2021/12/30 06:45:35;;;;;;;;;;;13.10;99.90;;;;;;5141544;27;19907;-75
2021/12/30 06:48:01;;;;;;;;;;;13.10;99.90;;;;;;5149382;27;19907;-76
2021/12/30 06:50:31;;;;;;;;;;;13.10;99.90;;;;;;5142561;27;20323;-76
2021/12/30 06:52:57;;;;;;;;;;;13.10;99.90;;;;;;5132770;28;19923;-77
2021/12/30 06:55:23;;;;;;;;;;;13.10;99.90;;;;;;5133667;28;19919;-76
2021/12/30 06:57:48;;;;;;;;;;;13.10;99.90;;;;;;5132389;28;20409;-76
2021/12/30 07:00:14;;;;;;;;;;;13.10;99.90;;;;;;5133190;28;19960;-76
2021/12/30 07:02:41;;;;;;;;;;;13.00;99.90;;;;;;5132888;28;19915;-76
2021/12/30 07:05:07;;;;;;;;;;;13.00;99.90;;;;;;5133584;28;19994;-77
2021/12/30 07:07:33;;;;;;;;;;;13.00;99.90;;;;;;5133275;28;19965;-76
2021/12/30 07:09:58;;;;;;;;;;;13.00;99.90;;;;;;5114155;28;20730;-76
2021/12/30 07:12:24;;;;;;;;;;;12.90;99.90;;;;;;5132338;27;19919;-76
2021/12/30 07:14:50;;;;;;;;;;;12.90;99.90;;;;;;5132482;28;19907;-76
2021/12/30 07:17:15;;;;;;;;;;;12.80;99.90;;;;;;5132716;28;19914;-76
2021/12/30 07:19:41;;;;;;;;;;;12.80;99.90;;;;;;5132845;28;19972;-76
2021/12/30 07:22:06;;;;;;;;;;;12.70;99.90;;;;;;5132507;28;19907;-76
2021/12/30 07:24:32;;;;;;;;;;;12.70;99.90;;;;;;5114905;28;19907;-76
2021/12/30 07:26:58;;;;;;;;;;;12.70;99.90;;;;;;5132427;28;19911;-76
2021/12/30 07:29:23;;;;;;;;;;;12.70;99.90;;;;;;5133197;28;19994;-76
2021/12/30 07:31:49;;;;;;;;;;;12.60;99.90;;;;;;5132487;28;19999;-75
2021/12/30 07:34:15;;;;;;;;;;;12.60;99.90;;;;;;5145786;27;19926;-75
2021/12/30 07:36:40;;;;;;;;;;;12.50;99.90;;;;;;5153973;27;19922;-75
2021/12/30 07:39:06;;;;;;;;;;;12.50;99.90;;;;;;5157493;27;19914;-75
2021/12/30 07:41:32;;;;;;;;;;;12.40;99.90;;;;;;5139364;27;20283;-76
2021/12/30 07:43:57;;;;;;;;;;;12.40;99.90;;;;;;5156865;27;19907;-75
2021/12/30 07:46:23;;;;;;;;;;;12.40;99.90;;;;;;5157561;27;19952;-76
2021/12/30 07:48:48;;;;;;;;;;;12.40;99.90;;;;;;5144006;27;19911;-75
2021/12/30 07:51:14;;;;;;;;;;;12.40;99.90;;;;;;5136894;27;19907;-75
2021/12/30 07:53:40;;;;;;;;;;;12.50;99.90;;;;;;5136892;27;19993;-75
2021/12/30 07:56:06;;;;;;;;;;;12.50;99.90;;;;;;5136116;27;20650;-75
2021/12/30 07:58:32;;;;;;;;;;;12.50;99.90;;;;;;5136809;27;19908;-75
2021/12/30 08:00:58;;;;;;;;;;;12.60;99.90;;;;;;5135765;27;19917;-75
2021/12/30 08:03:24;;;;;;;;;;;12.50;99.90;;;;;;5136696;27;20352;-75
2021/12/30 08:05:50;;;;;;;;;;;12.60;99.90;;;;;;5135698;27;19907;-75
2021/12/30 08:08:15;;;;;;;;;;;12.60;99.90;;;;;;5118314;27;19915;-75
2021/12/30 08:10:41;;;;;;;;;;;12.70;99.90;;;;;;5136804;27;19907;-75
2021/12/30 08:13:06;;;;;;;;;;;12.70;99.90;;;;;;5135778;27;19915;-76
2021/12/30 08:15:32;;;;;;;;;;;12.70;99.90;;;;;;5136179;27;20272;-75
2021/12/30 08:17:58;;;;;;;;;;;12.80;99.90;;;;;;5135518;27;19919;-75
2021/12/30 08:20:23;;;;;;;;;;;12.80;99.90;;;;;;5136197;27;19907;-75
2021/12/30 08:22:50;;;;;;;;;;;12.80;99.90;;;;;;5135252;27;19951;-76
2021/12/30 08:25:16;;;;;;;;;;;12.90;99.90;;;;;;5117478;27;19912;-75
2021/12/30 08:27:42;;;;;;;;;;;12.90;99.90;;;;;;5136200;27;19908;-75
2021/12/30 08:30:09;;;;;;;;;;;13.00;99.90;;;;;;5135383;27;19904;-76
2021/12/30 08:32:35;;;;;;;;;;;13.00;99.90;;;;;;5117599;27;19915;-76
2021/12/30 08:35:00;;;;;;;;;;;13.00;99.90;;;;;;5153818;27;19915;-76
2021/12/30 08:37:26;;;;;;;;;;;13.00;99.90;;;;;;5156878;27;19907;-75
2021/12/30 08:39:52;;;;;;;;;;;13.10;99.90;;;;;;5155765;27;19952;-76
2021/12/30 08:42:19;;;;;;;;;;;13.20;99.90;;;;;;5156657;27;19914;-75
2021/12/30 08:44:45;;;;;;;;;;;13.20;99.90;;;;;;5156385;27;19915;-75
2021/12/30 08:47:11;;;;;;;;;;;13.30;99.90;;;;;;5155409;27;19907;-76
2021/12/30 08:49:36;;;;;;;;;;;13.30;99.90;;;;;;5156028;27;19956;-76
2021/12/30 08:52:02;;;;;;;;;;;13.30;99.90;;;;;;5155275;27;19907;-76
2021/12/30 08:54:29;;;;;;;;;;;13.30;99.90;;;;;;5156436;27;19993;-76
2021/12/30 08:56:55;;;;;;;;;;;13.30;99.90;;;;;;5155489;27;19919;-76
2021/12/30 08:59:20;;;;;;;;;;;13.30;99.90;;;;;;5155650;27;19911;-75
2021/12/30 09:01:46;;;;;;;;;;;13.40;99.90;;;;;;5155368;27;19994;-75
2021/12/30 09:04:11;;;;;;;;;;;13.40;99.90;;;;;;5155446;27;20359;-76
2021/12/30 09:06:37;;;;;;;;;;;13.40;99.90;;;;;;5156129;27;19907;-75
2021/12/30 09:09:02;;;;;;;;;;;13.40;99.90;;;;;;5154585;27;19911;-76
2021/12/30 09:11:28;;;;;;;;;;;13.30;99.90;;;;;;5145475;27;19922;-75
2021/12/30 09:13:54;;;;;;;;;;;13.30;99.90;;;;;;5143970;27;19915;-76
2021/12/30 09:16:19;;;;;;;;;;;13.30;99.90;;;;;;5144569;27;20010;-76
2021/12/30 09:18:45;;;;;;;;;;;13.30;99.90;;;;;;5126605;27;19907;-75
2021/12/30 09:21:10;;;;;;;;;;;13.30;99.90;;;;;;5145334;27;19907;-76
2021/12/30 09:23:36;;;;;;;;;;;13.30;99.90;;;;;;5161312;27;19974;-75
2021/12/30 09:26:01;;;;;;;;;;;13.20;99.90;;;;;;5150845;27;19911;-77
2021/12/30 09:28:27;;;;;;;;;;;13.30;99.90;;;;;;5141950;27;19938;-75
2021/12/30 09:30:53;;;;;;;;;;;13.20;99.90;;;;;;5142854;27;19925;-76
2021/12/30 09:33:18;;;;;;;;;;;13.20;99.90;;;;;;5126607;27;19923;-75
2021/12/30 09:35:44;;;;;;;;;;;13.20;99.90;;;;;;5143696;27;20366;-75
2021/12/30 09:38:11;;;;;;;;;;;13.30;99.90;;;;;;5141799;27;19918;-75
2021/12/30 09:40:36;;;;;;;;;;;13.30;99.90;;;;;;5134517;27;20300;-76
2021/12/30 09:43:04;;;;;;;;;;;13.30;99.90;;;;;;5133900;27;19908;-76
2021/12/30 09:45:35;;;;;;;;;;;13.30;99.90;;;;;;5134239;27;19907;-76
2021/12/30 09:48:03;;;;;;;;;;;13.30;99.90;;;;;;5133644;27;19916;-75
2021/12/30 09:50:31;;;;;;;;;;;13.30;99.90;;;;;;5134626;27;19926;-76
2021/12/30 09:52:57;;;;;;;;;;;13.30;99.90;;;;;;5133325;27;20368;-76
2021/12/30 09:55:25;;;;;;;;;;;13.30;99.90;;;;;;5133272;27;20451;-76
2021/12/30 09:57:54;;;;;;;;;;;13.30;99.90;;;;;;5133905;27;19919;-76
2021/12/30 10:00:21;;;;;;;;;;;13.30;99.90;;;;;;5133436;27;19907;-76
2021/12/30 10:02:47;;;;;;;;;;;13.30;99.90;;;;;;5134527;27;19933;-76
2021/12/30 10:05:17;;;;;;;;;;;13.30;99.90;;;;;;5133703;27;20516;-76
2021/12/30 10:07:42;;;;;;;;;;;13.40;99.90;;;;;;5115553;27;19907;-75
2021/12/30 10:10:27;;;;;;;;;;;13.30;99.90;;;;;;5133362;27;20003;-76
2021/12/30 10:12:53;;;;;;;;;;;13.30;99.90;;;;;;5146597;27;20390;-76
2021/12/30 10:15:24;;;;;;;;;;;13.30;99.90;;;;;;5154337;27;19990;-75
2021/12/30 10:18:00;;;;;;;;;;;13.40;99.90;;;;;;5154625;27;19918;-74
2021/12/30 10:20:29;;;;;;;;;;;13.40;99.90;;;;;;5154652;27;19960;-74
2021/12/30 10:22:56;;;;;;;;;;;13.40;99.90;;;;;;5153734;27;20314;-76
2021/12/30 10:25:32;;;;;;;;;;;13.40;99.90;;;;;;5154312;27;20374;-75
2021/12/30 10:28:18;;;;;;;;;;;13.40;99.90;;;;;;5153540;27;20271;-78
2021/12/30 10:30:43;;;;;;;;;;;13.40;99.90;;;;;;5153590;27;20260;-75
2021/12/30 10:33:16;;;;;;;;;;;13.40;99.90;;;;;;5153524;27;19922;-75
2021/12/30 10:35:42;;;;;;;;;;;13.50;99.90;;;;;;5154418;27;19993;-75
2021/12/30 10:38:11;;;;;;;;;;;13.50;99.90;;;;;;5153459;27;19942;-77
2021/12/30 10:40:38;;;;;;;;;;;13.50;99.90;;;;;;5154340;27;19911;-77
2021/12/30 10:43:32;;;;;;;;;;;13.60;99.90;;;;;;5123186;27;20336;-77
2021/12/30 10:46:04;;;;;;;;;;;13.60;99.90;;;;;;5133837;27;19912;-77
2021/12/30 10:48:30;;;;;;;;;;;13.60;99.90;;;;;;5142115;27;19946;-77
2021/12/30 10:51:10;;;;;;;;;;;13.60;99.90;;;;;;5153545;27;19957;-77
2021/12/30 10:53:37;;;;;;;;;;;13.70;99.90;;;;;;5153880;27;19915;-77
2021/12/30 10:56:21;;;;;;;;;;;13.70;99.90;;;;;;5153352;27;19958;-77
2021/12/30 10:58:47;;;;;;;;;;;13.70;99.90;;;;;;5135421;27;19930;-77
2021/12/30 11:01:13;;;;;;;;;;;13.70;99.90;;;;;;5153303;27;20344;-76
2021/12/30 11:03:42;;;;;;;;;;;13.80;99.90;;;;;;5154628;27;19993;-76
2021/12/30 11:06:18;;;;;;;;;;;13.80;99.90;;;;;;5153290;27;19907;-77
2021/12/30 11:08:46;;;;;;;;;;;13.80;99.90;;;;;;5154514;27;19907;-76
2021/12/30 11:11:28;;;;;;;;;;;13.80;99.90;;;;;;5154704;27;19907;-77
2021/12/30 11:14:04;;;;;;;;;;;13.80;99.90;;;;;;5158231;27;19922;-76
2021/12/30 11:16:30;;;;;;;;;;;13.70;99.90;;;;;;5157917;27;20439;-77
2021/12/30 11:18:56;;;;;;;;;;;13.80;99.90;;;;;;5158089;27;19939;-76
2021/12/30 11:21:42;;;;;;;;;;;13.80;99.90;;;;;;5157359;27;19911;-77
2021/12/30 11:24:09;;;;;;;;;;;13.80;99.90;;;;;;5157133;27;19911;-77
2021/12/30 11:26:35;;;;;;;;;;;13.80;99.90;;;;;;5152357;27;19911;-76
2021/12/30 11:29:01;;;;;;;;;;;13.80;99.90;;;;;;5157387;27;19971;-77
2021/12/30 11:31:28;;;;;;;;;;;13.80;99.90;;;;;;5157769;27;19998;-77
2021/12/30 11:33:53;;;;;;;;;;;13.80;99.90;;;;;;5143630;27;19916;-77
2021/12/30 11:36:19;;;;;;;;;;;13.80;99.90;;;;;;5154241;27;19910;-76
2021/12/30 11:38:44;;;;;;;;;;;13.80;99.90;;;;;;5157432;27;20022;-76
2021/12/30 11:41:17;;;;;;;;;;;13.80;99.90;;;;;;5156855;27;20366;-76
2021/12/30 11:43:43;;;;;;;;;;;13.80;99.90;;;;;;5156912;27;19907;-75
2021/12/30 11:46:27;;;;;;;;;;;13.90;99.90;;;;;;5156211;27;19923;-77
2021/12/30 11:48:54;;;;;;;;;;;13.90;99.90;;;;;;5156754;27;19907;-77
2021/12/30 11:51:22;;;;;;;;;;;13.90;99.90;;;;;;5155755;27;19966;-76
2021/12/30 11:53:50;;;;;;;;;;;13.90;99.90;;;;;;5156580;27;19923;-78
2021/12/30 11:56:25;;;;;;;;;;;13.90;99.90;;;;;;5155511;27;19926;-76
2021/12/30 11:58:54;;;;;;;;;;;13.90;99.90;;;;;;5159722;27;20352;-75
2021/12/30 12:01:21;;;;;;;;;;;13.90;99.90;;;;;;5143285;27;19908;-76
2021/12/30 12:03:47;;;;;;;;;;;13.90;99.90;;;;;;5143116;27;19929;-76
2021/12/30 12:06:26;;;;;;;;;;;13.90;99.90;;;;;;5123268;27;19939;-76
2021/12/30 12:08:56;;;;;;;;;;;13.90;99.90;;;;;;5116420;27;19914;-76
2021/12/30 12:11:23;;;;;;;;;;;13.80;99.90;;;;;;5134002;27;20207;-75
2021/12/30 12:13:50;;;;;;;;;;;13.80;99.90;;;;;;5135043;27;19967;-77
2021/12/30 12:16:36;;;;;;;;;;;13.80;99.90;;;;;;5134224;27;19907;-77
2021/12/30 12:19:05;;;;;;;;;;;13.80;99.90;;;;;;5134310;27;19994;-77
2021/12/30 12:21:44;;;;;;;;;;;13.80;99.90;;;;;;5134493;27;19914;-77
2021/12/30 12:24:22;;;;;;;;;;;13.80;99.90;;;;;;5132720;27;19965;-77
2021/12/30 12:26:49;;;;;;;;;;;13.80;99.90;;;;;;5134514;27;20405;-77
2021/12/30 12:29:34;;;;;;;;;;;13.80;99.90;;;;;;5134006;27;20287;-76
2021/12/30 12:32:03;;;;;;;;;;;13.80;99.90;;;;;;5134248;27;20427;-77
2021/12/30 12:34:50;;;;;;;;;;;13.70;99.90;;;;;;5135690;27;19920;-77
2021/12/30 12:37:28;;;;;;;;;;;13.70;99.90;;;;;;5134178;27;19913;-78
2021/12/30 12:39:55;;;;;;;;;;;13.70;99.90;;;;;;5135074;27;19907;-78
2021/12/30 12:42:20;;;;;;;;;;;13.70;99.90;;;;;;5134465;27;19912;-76
2021/12/30 12:45:06;;;;;;;;;;;13.70;99.90;;;;;;5134860;27;20014;-78
2021/12/30 12:47:31;;;;;;;;;;;13.70;99.90;;;;;;5116219;27;20288;-78
2021/12/30 12:50:05;;;;;;;;;;;13.70;99.90;;;;;;5135319;27;19908;-77
2021/12/30 12:52:41;;;;;;;;;;;13.70;99.90;;;;;;5117045;27;19974;-78
2021/12/30 12:55:07;;;;;;;;;;;13.70;99.90;;;;;;5134346;27;19920;-77
2021/12/30 12:57:33;;;;;;;;;;;13.70;99.90;;;;;;5135756;27;19914;-77
2021/12/30 13:00:00;;;;;;;;;;;13.70;99.90;;;;;;5117160;27;19911;-77
2021/12/30 13:02:25;;;;;;;;;;;13.70;99.90;;;;;;5116151;27;19907;-76
2021/12/30 13:04:51;;;;;;;;;;;13.70;99.90;;;;;;5139669;27;19922;-76
2021/12/30 13:07:19;;;;;;;;;;;13.70;99.90;;;;;;5136630;27;19914;-76
2021/12/30 13:09:45;;;;;;;;;;;13.70;99.90;;;;;;5155655;27;19907;-76
2021/12/30 13:12:11;;;;;;;;;;;13.80;99.90;;;;;;5147697;27;20006;-78
2021/12/30 13:14:39;;;;;;;;;;;13.80;99.90;;;;;;5116316;27;20335;-75
2021/12/30 13:17:06;;;;;;;;;;;13.70;99.90;;;;;;5134698;27;19907;-76
2021/12/30 13:19:36;;;;;;;;;;;13.70;99.90;;;;;;5134700;27;20428;-76
2021/12/30 13:22:03;;;;;;;;;;;13.70;99.90;;;;;;5134719;27;20010;-76
2021/12/30 13:24:44;;;;;;;;;;;13.70;99.90;;;;;;5134180;27;19914;-77
2021/12/30 13:27:13;;;;;;;;;;;13.70;99.90;;;;;;5133725;27;20288;-77
2021/12/30 13:29:39;;;;;;;;;;;13.70;99.90;;;;;;5134616;27;19912;-78
2021/12/30 13:32:07;;;;;;;;;;;13.70;99.90;;;;;;5134334;27;19908;-78
2021/12/30 13:34:35;;;;;;;;;;;13.60;99.90;;;;;;5134442;27;19940;-79
2021/12/30 13:37:08;;;;;;;;;;;13.60;99.90;;;;;;5134181;27;19947;-80
2021/12/30 13:39:34;;;;;;;;;;;13.50;99.90;;;;;;5133804;27;19911;-81
2021/12/30 13:42:01;;;;;;;;;;;13.50;99.90;;;;;;5135966;27;20360;-81
2021/12/30 13:44:36;;;;;;;;;;;13.50;99.90;;;;;;5140644;27;19913;-80
2021/12/30 13:47:15;;;;;;;;;;;13.40;99.90;;;;;;5142483;27;19922;-79
2021/12/30 13:49:41;;;;;;;;;;;13.40;99.90;;;;;;5148064;27;19993;-85
2021/12/30 13:52:07;;;;;;;;;;;13.30;99.90;;;;;;5133810;27;20354;-82
2021/12/30 13:54:33;;;;;;;;;;;13.30;99.90;;;;;;5132872;27;19927;-82
2021/12/30 13:56:58;;;;;;;;;;;13.30;99.90;;;;;;5132757;27;19924;-81
2021/12/30 13:59:28;;;;;;;;;;;13.20;99.90;;;;;;5133063;27;20345;-81
2021/12/30 14:01:54;;;;;;;;;;;13.20;99.90;;;;;;5134729;27;20364;-80
2021/12/30 14:04:24;;;;;;;;;;;13.20;99.90;;;;;;5133947;27;20017;-80
2021/12/30 14:06:53;;;;;;;;;;;13.10;99.90;;;;;;5134221;27;20434;-79
2021/12/30 14:09:18;;;;;;;;;;;13.10;99.90;;;;;;5116365;27;19934;-80
2021/12/30 14:11:45;;;;;;;;;;;13.10;99.90;;;;;;5133752;27;19908;-82
2021/12/30 14:14:12;;;;;;;;;;;13.00;99.90;;;;;;5132794;27;20139;-82
2021/12/30 14:16:40;;;;;;;;;;;13.00;99.90;;;;;;5133493;27;19932;-82